sensor_id;sensor_type;location;lat;lon;timestamp;pressure;altitude;pressure_sealevel;temperature
45565;BMP280;31280;40.408;17.282;2022-10-24T00:02:07;102078.84;;;19.08
45565;BMP280;31280;40.408;17.282;2022-10-24T00:04:38;102073.78;;;19.06
45565;BMP280;31280;40.408;17.282;2022-10-24T00:07:05;102066.13;;;19.01
45565;BMP280;31280;40.408;17.282;2022-10-24T00:09:32;102070.06;;;19.00
45565;BMP280;31280;40.408;17.282;2022-10-24T00:11:58;102065.69;;;19.03
45565;BMP280;31280;40.408;17.282;2022-10-24T00:14:24;102056.28;;;18.92
45565;BMP280;31280;40.408;17.282;2022-10-24T00:16:51;102074.66;;;19.03
45565;BMP280;31280;40.408;17.282;2022-10-24T00:19:17;102070.72;;;19.04
45565;BMP280;31280;40.408;17.282;2022-10-24T00:21:43;102061.00;;;19.03
45565;BMP280;31280;40.408;17.282;2022-10-24T00:24:09;102069.19;;;19.03
45565;BMP280;31280;40.408;17.282;2022-10-24T00:26:35;102071.94;;;19.03
45565;BMP280;31280;40.408;17.282;2022-10-24T00:29:02;102064.94;;;19.02
45565;BMP280;31280;40.408;17.282;2022-10-24T00:31:28;102065.38;;;19.01
45565;BMP280;31280;40.408;17.282;2022-10-24T00:33:54;102069.31;;;19.00
45565;BMP280;31280;40.408;17.282;2022-10-24T00:36:22;102067.03;;;18.98
45565;BMP280;31280;40.408;17.282;2022-10-24T00:38:50;102060.00;;;18.97
45565;BMP280;31280;40.408;17.282;2022-10-24T00:41:22;102061.22;;;18.96
45565;BMP280;31280;40.408;17.282;2022-10-24T00:43:49;102069.41;;;18.96
45565;BMP280;31280;40.408;17.282;2022-10-24T00:46:16;102058.50;;;18.96
45565;BMP280;31280;40.408;17.282;2022-10-24T00:48:48;102060.44;;;18.96
45565;BMP280;31280;40.408;17.282;2022-10-24T00:53:47;102062.44;;;18.96
45565;BMP280;31280;40.408;17.282;2022-10-24T00:56:15;102051.94;;;18.94
45565;BMP280;31280;40.408;17.282;2022-10-24T00:58:43;102047.69;;;18.93
45565;BMP280;31280;40.408;17.282;2022-10-24T01:01:10;102050.41;;;18.93
45565;BMP280;31280;40.408;17.282;2022-10-24T01:03:36;102056.28;;;18.92
45565;BMP280;31280;40.408;17.282;2022-10-24T01:06:29;102057.06;;;18.92
45565;BMP280;31280;40.408;17.282;2022-10-24T01:09:17;102049.34;;;18.91
45565;BMP280;31280;40.408;17.282;2022-10-24T01:14:30;102046.91;;;18.93
45565;BMP280;31280;40.408;17.282;2022-10-24T01:25:11;102042.00;;;18.88
45565;BMP280;31280;40.408;17.282;2022-10-24T01:30:08;102040.13;;;18.85
45565;BMP280;31280;40.408;17.282;2022-10-24T01:40:57;102031.72;;;18.79
45565;BMP280;31280;40.408;17.282;2022-10-24T01:43:30;102030.28;;;18.75
45565;BMP280;31280;40.408;17.282;2022-10-24T01:46:01;102029.53;;;18.74
45565;BMP280;31280;40.408;17.282;2022-10-24T01:48:30;102022.84;;;18.75
45565;BMP280;31280;40.408;17.282;2022-10-24T01:50:59;102026.59;;;18.69
45565;BMP280;31280;40.408;17.282;2022-10-24T01:53:27;102025.25;;;18.61
45565;BMP280;31280;40.408;17.282;2022-10-24T01:55:54;102031.59;;;18.58
45565;BMP280;31280;40.408;17.282;2022-10-24T01:58:21;102030.63;;;18.52
45565;BMP280;31280;40.408;17.282;2022-10-24T02:00:48;102029.09;;;18.51
45565;BMP280;31280;40.408;17.282;2022-10-24T02:03:26;102020.16;;;18.51
45565;BMP280;31280;40.408;17.282;2022-10-24T02:06:09;102027.56;;;18.50
45565;BMP280;31280;40.408;17.282;2022-10-24T02:08:40;102023.31;;;18.49
45565;BMP280;31280;40.408;17.282;2022-10-24T02:11:06;102023.31;;;18.49
45565;BMP280;31280;40.408;17.282;2022-10-24T02:13:44;102026.78;;;18.50
45565;BMP280;31280;40.408;17.282;2022-10-24T02:16:14;102023.00;;;18.47
45565;BMP280;31280;40.408;17.282;2022-10-24T02:18:41;102022.66;;;18.45
45565;BMP280;31280;40.408;17.282;2022-10-24T02:29:00;102005.13;;;18.31
45565;BMP280;31280;40.408;17.282;2022-10-24T02:31:32;101970.06;;;18.05
45565;BMP280;31280;40.408;17.282;2022-10-24T02:34:00;101997.72;;;18.19
45565;BMP280;31280;40.408;17.282;2022-10-24T02:36:28;102018.47;;;18.29
45565;BMP280;31280;40.408;17.282;2022-10-24T02:38:55;102008.63;;;18.19
45565;BMP280;31280;40.408;17.282;2022-10-24T02:41:26;102013.28;;;18.18
45565;BMP280;31280;40.408;17.282;2022-10-24T02:43:54;102020.53;;;18.25
45565;BMP280;31280;40.408;17.282;2022-10-24T02:46:20;102018.66;;;18.22
45565;BMP280;31280;40.408;17.282;2022-10-24T02:48:50;102021.38;;;18.22
45565;BMP280;31280;40.408;17.282;2022-10-24T02:51:19;102014.75;;;18.23
45565;BMP280;31280;40.408;17.282;2022-10-24T02:53:46;102009.38;;;18.19
45565;BMP280;31280;40.408;17.282;2022-10-24T02:56:12;102006.66;;;18.19
45565;BMP280;31280;40.408;17.282;2022-10-24T02:58:38;102011.00;;;18.17
45565;BMP280;31280;40.408;17.282;2022-10-24T03:01:04;102007.84;;;18.18
45565;BMP280;31280;40.408;17.282;2022-10-24T03:03:29;102009.50;;;18.16
45565;BMP280;31280;40.408;17.282;2022-10-24T03:05:55;102010.94;;;18.20
45565;BMP280;31280;40.408;17.282;2022-10-24T03:08:21;101997.47;;;18.13
45565;BMP280;31280;40.408;17.282;2022-10-24T03:10:47;102013.66;;;18.20
45565;BMP280;31280;40.408;17.282;2022-10-24T03:13:13;102002.50;;;18.15
45565;BMP280;31280;40.408;17.282;2022-10-24T03:15:39;102013.53;;;18.24
45565;BMP280;31280;40.408;17.282;2022-10-24T03:18:05;102009.38;;;18.19
45565;BMP280;31280;40.408;17.282;2022-10-24T03:20:31;102013.13;;;18.25
45565;BMP280;31280;40.408;17.282;2022-10-24T03:22:57;102010.16;;;18.20
45565;BMP280;31280;40.408;17.282;2022-10-24T03:25:23;102010.81;;;18.24
45565;BMP280;31280;40.408;17.282;2022-10-24T03:27:49;102006.56;;;18.23
45565;BMP280;31280;40.408;17.282;2022-10-24T03:30:15;102013.19;;;18.22
45565;BMP280;31280;40.408;17.282;2022-10-24T03:32:41;102017.16;;;18.21
45565;BMP280;31280;40.408;17.282;2022-10-24T03:35:06;102007.06;;;18.18
45565;BMP280;31280;40.408;17.282;2022-10-24T03:37:32;102011.00;;;18.17
45565;BMP280;31280;40.408;17.282;2022-10-24T03:39:58;101999.88;;;18.12
45565;BMP280;31280;40.408;17.282;2022-10-24T03:42:24;102000.44;;;18.19
45565;BMP280;31280;40.408;17.282;2022-10-24T03:44:50;101996.28;;;18.14
45565;BMP280;31280;40.408;17.282;2022-10-24T03:47:16;102004.34;;;18.18
45565;BMP280;31280;40.408;17.282;2022-10-24T03:49:42;101977.16;;;18.02
45565;BMP280;31280;40.408;17.282;2022-10-24T03:52:08;102008.09;;;18.24
45565;BMP280;31280;40.408;17.282;2022-10-24T03:54:34;102007.56;;;18.29
45565;BMP280;31280;40.408;17.282;2022-10-24T03:57:00;101991.25;;;18.13
45565;BMP280;31280;40.408;17.282;2022-10-24T03:59:26;102001.41;;;18.13
45565;BMP280;31280;40.408;17.282;2022-10-24T04:01:51;102008.06;;;18.12
45565;BMP280;31280;40.408;17.282;2022-10-24T04:04:20;102007.41;;;18.08
45565;BMP280;31280;40.408;17.282;2022-10-24T04:06:46;102009.78;;;18.06
45565;BMP280;31280;40.408;17.282;2022-10-24T04:09:12;101999.41;;;18.01
45565;BMP280;31280;40.408;17.282;2022-10-24T04:11:38;101997.97;;;17.96
45565;BMP280;31280;40.408;17.282;2022-10-24T04:14:03;102006.41;;;18.02
45565;BMP280;31280;40.408;17.282;2022-10-24T04:16:29;102008.34;;;18.01
45565;BMP280;31280;40.408;17.282;2022-10-24T04:18:58;101990.84;;;17.86
45565;BMP280;31280;40.408;17.282;2022-10-24T04:21:24;101997.41;;;17.89
45565;BMP280;31280;40.408;17.282;2022-10-24T04:23:50;102005.09;;;17.94
45565;BMP280;31280;40.408;17.282;2022-10-24T04:26:16;102003.84;;;17.95
45565;BMP280;31280;40.408;17.282;2022-10-24T04:28:42;102006.91;;;17.97
45565;BMP280;31280;40.408;17.282;2022-10-24T04:31:08;102003.78;;;17.98
45565;BMP280;31280;40.408;17.282;2022-10-24T04:33:34;101996.00;;;17.97
45565;BMP280;31280;40.408;17.282;2022-10-24T04:36:03;101991.53;;;17.90
45565;BMP280;31280;40.408;17.282;2022-10-24T04:38:29;101990.75;;;17.90
45565;BMP280;31280;40.408;17.282;2022-10-24T04:40:55;101985.22;;;17.93
45565;BMP280;31280;40.408;17.282;2022-10-24T04:43:23;102002.03;;;18.04
45565;BMP280;31280;40.408;17.282;2022-10-24T04:45:49;101998.09;;;18.05
45565;BMP280;31280;40.408;17.282;2022-10-24T04:48:15;101998.00;;;18.09
45565;BMP280;31280;40.408;17.282;2022-10-24T04:50:42;101993.44;;;18.06
45565;BMP280;31280;40.408;17.282;2022-10-24T04:53:08;101994.84;;;18.10
45565;BMP280;31280;40.408;17.282;2022-10-24T04:55:35;102007.84;;;18.18
45565;BMP280;31280;40.408;17.282;2022-10-24T04:58:01;102013.97;;;18.22
45565;BMP280;31280;40.408;17.282;2022-10-24T05:00:27;102007.00;;;18.21
45565;BMP280;31280;40.408;17.282;2022-10-24T05:02:53;102000.97;;;18.14
45565;BMP280;31280;40.408;17.282;2022-10-24T05:05:18;102013.19;;;18.22
45565;BMP280;31280;40.408;17.282;2022-10-24T05:07:45;102013.75;;;18.17
45565;BMP280;31280;40.408;17.282;2022-10-24T05:10:12;101998.78;;;18.09
45565;BMP280;31280;40.408;17.282;2022-10-24T05:12:38;102009.59;;;18.13
45565;BMP280;31280;40.408;17.282;2022-10-24T05:15:06;102015.25;;;18.06
45565;BMP280;31280;40.408;17.282;2022-10-24T05:17:32;102014.84;;;17.91
45565;BMP280;31280;40.408;17.282;2022-10-24T05:19:58;102005.09;;;17.78
45565;BMP280;31280;40.408;17.282;2022-10-24T05:22:24;102014.59;;;17.86
45565;BMP280;31280;40.408;17.282;2022-10-24T05:24:50;102009.69;;;17.81
45565;BMP280;31280;40.408;17.282;2022-10-24T05:27:16;102012.34;;;17.85
45565;BMP280;31280;40.408;17.282;2022-10-24T05:29:51;102008.75;;;17.87
45565;BMP280;31280;40.408;17.282;2022-10-24T05:32:18;102007.13;;;17.90
45565;BMP280;31280;40.408;17.282;2022-10-24T05:34:45;102004.84;;;17.88
45565;BMP280;31280;40.408;17.282;2022-10-24T05:37:11;102001.09;;;17.83
45565;BMP280;31280;40.408;17.282;2022-10-24T05:39:37;102011.22;;;17.82
45565;BMP280;31280;40.408;17.282;2022-10-24T05:42:03;102013.41;;;17.59
45565;BMP280;31280;40.408;17.282;2022-10-24T05:44:29;102006.63;;;17.51
45565;BMP280;31280;40.408;17.282;2022-10-24T05:46:55;102002.44;;;17.62
45565;BMP280;31280;40.408;17.282;2022-10-24T05:49:21;102011.34;;;17.79
45565;BMP280;31280;40.408;17.282;2022-10-24T05:51:47;102012.56;;;17.90
45565;BMP280;31280;40.408;17.282;2022-10-24T05:54:12;102016.41;;;17.92
45565;BMP280;31280;40.408;17.282;2022-10-24T05:56:38;102016.44;;;18.05
45565;BMP280;31280;40.408;17.282;2022-10-24T05:59:04;102025.19;;;18.12
45565;BMP280;31280;40.408;17.282;2022-10-24T06:01:30;102020.06;;;18.14
45565;BMP280;31280;40.408;17.282;2022-10-24T06:03:56;102027.53;;;18.26
45565;BMP280;31280;40.408;17.282;2022-10-24T06:06:23;102036.69;;;18.32
45565;BMP280;31280;40.408;17.282;2022-10-24T06:08:49;102035.41;;;18.36
45565;BMP280;31280;40.408;17.282;2022-10-24T06:11:16;102041.97;;;18.39
45565;BMP280;31280;40.408;17.282;2022-10-24T06:13:42;102040.66;;;18.43
45565;BMP280;31280;40.408;17.282;2022-10-24T06:16:09;102052.69;;;18.45
45565;BMP280;31280;40.408;17.282;2022-10-24T06:18:36;102037.72;;;18.38
45565;BMP280;31280;40.408;17.282;2022-10-24T06:21:04;102050.03;;;18.54
45565;BMP280;31280;40.408;17.282;2022-10-24T06:23:30;102043.41;;;18.55
45565;BMP280;31280;40.408;17.282;2022-10-24T06:25:56;102064.16;;;18.65
45565;BMP280;31280;40.408;17.282;2022-10-24T06:28:22;102070.19;;;18.72
45565;BMP280;31280;40.408;17.282;2022-10-24T06:30:49;102065.25;;;18.80
45565;BMP280;31280;40.408;17.282;2022-10-24T06:33:15;102058.81;;;18.86
45565;BMP280;31280;40.408;17.282;2022-10-24T06:35:40;102069.63;;;18.90
45565;BMP280;31280;40.408;17.282;2022-10-24T06:38:06;102057.94;;;18.89
45565;BMP280;31280;40.408;17.282;2022-10-24T06:40:33;102071.94;;;19.03
45565;BMP280;31280;40.408;17.282;2022-10-24T06:42:59;102067.13;;;19.07
45565;BMP280;31280;40.408;17.282;2022-10-24T06:45:24;102069.19;;;19.16
45565;BMP280;31280;40.408;17.282;2022-10-24T06:47:50;102061.31;;;19.18
45565;BMP280;31280;40.408;17.282;2022-10-24T06:50:16;102070.72;;;19.29
45565;BMP280;31280;40.408;17.282;2022-10-24T06:52:42;102073.63;;;19.34
45565;BMP280;31280;40.408;17.282;2022-10-24T06:55:09;102076.81;;;19.33
45565;BMP280;31280;40.408;17.282;2022-10-24T06:57:34;102081.09;;;19.34
45565;BMP280;31280;40.408;17.282;2022-10-24T07:00:00;102086.75;;;19.39
45565;BMP280;31280;40.408;17.282;2022-10-24T07:02:26;102084.22;;;19.45
45565;BMP280;31280;40.408;17.282;2022-10-24T07:04:52;102085.63;;;19.49
45565;BMP280;31280;40.408;17.282;2022-10-24T07:07:19;102096.22;;;19.59
45565;BMP280;31280;40.408;17.282;2022-10-24T07:09:52;102097.50;;;19.67
45565;BMP280;31280;40.408;17.282;2022-10-24T07:12:19;102101.53;;;19.75
45565;BMP280;31280;40.408;17.282;2022-10-24T07:14:45;102096.59;;;19.82
45565;BMP280;31280;40.408;17.282;2022-10-24T07:17:10;102094.03;;;19.88
45565;BMP280;31280;40.408;17.282;2022-10-24T07:19:40;102096.53;;;19.95
45565;BMP280;31280;40.408;17.282;2022-10-24T07:22:24;102093.88;;;20.04
45565;BMP280;31280;40.408;17.282;2022-10-24T07:24:53;102095.88;;;20.12
45565;BMP280;31280;40.408;17.282;2022-10-24T07:27:20;102071.84;;;20.07
45565;BMP280;31280;40.408;17.282;2022-10-24T07:29:46;102094.59;;;20.25
45565;BMP280;31280;40.408;17.282;2022-10-24T07:32:12;102085.91;;;20.39
45565;BMP280;31280;40.408;17.282;2022-10-24T07:34:39;102082.63;;;20.53
45565;BMP280;31280;40.408;17.282;2022-10-24T07:37:05;102088.47;;;20.63
45565;BMP280;31280;40.408;17.282;2022-10-24T07:39:31;102083.34;;;20.74
45565;BMP280;31280;40.408;17.282;2022-10-24T07:41:57;102087.78;;;20.81
45565;BMP280;31280;40.408;17.282;2022-10-24T07:44:23;102090.34;;;20.84
45565;BMP280;31280;40.408;17.282;2022-10-24T07:46:49;102092.53;;;20.89
45565;BMP280;31280;40.408;17.282;2022-10-24T07:49:15;102085.84;;;20.90
45565;BMP280;31280;40.408;17.282;2022-10-24T07:51:41;102091.16;;;20.93
45565;BMP280;31280;40.408;17.282;2022-10-24T07:54:07;102093.19;;;21.02
45565;BMP280;31280;40.408;17.282;2022-10-24T07:56:33;102089.72;;;21.10
45565;BMP280;31280;40.408;17.282;2022-10-24T07:58:59;102086.22;;;21.27
45565;BMP280;31280;40.408;17.282;2022-10-24T08:01:27;102086.13;;;21.40
45565;BMP280;31280;40.408;17.282;2022-10-24T08:03:54;102089.94;;;21.51
45565;BMP280;31280;40.408;17.282;2022-10-24T08:06:23;102087.34;;;21.56
45565;BMP280;31280;40.408;17.282;2022-10-24T08:08:50;102087.66;;;21.58
45565;BMP280;31280;40.408;17.282;2022-10-24T08:11:18;102093.25;;;21.64
45565;BMP280;31280;40.408;17.282;2022-10-24T08:13:46;102074.22;;;21.60
45565;BMP280;31280;40.408;17.282;2022-10-24T08:16:13;102079.88;;;21.74
45565;BMP280;31280;40.408;17.282;2022-10-24T08:18:41;102075.72;;;21.79
45565;BMP280;31280;40.408;17.282;2022-10-24T08:21:09;102075.91;;;21.93
45565;BMP280;31280;40.408;17.282;2022-10-24T08:23:38;102074.81;;;21.99
45565;BMP280;31280;40.408;17.282;2022-10-24T08:26:05;102056.69;;;21.93
45565;BMP280;31280;40.408;17.282;2022-10-24T08:28:32;102075.84;;;22.11
45565;BMP280;31280;40.408;17.282;2022-10-24T08:31:00;102068.34;;;22.20
45565;BMP280;31280;40.408;17.282;2022-10-24T08:33:26;102068.03;;;22.27
45565;BMP280;31280;40.408;17.282;2022-10-24T08:36:05;102054.78;;;22.25
45565;BMP280;31280;40.408;17.282;2022-10-24T08:38:32;102072.13;;;22.40
45565;BMP280;31280;40.408;17.282;2022-10-24T08:40:58;102066.88;;;22.51
45565;BMP280;31280;40.408;17.282;2022-10-24T08:43:25;102059.06;;;22.58
45565;BMP280;31280;40.408;17.282;2022-10-24T08:48:35;102058.16;;;22.84
45565;BMP280;31280;40.408;17.282;2022-10-24T08:51:38;102064.09;;;23.15
45565;BMP280;31280;40.408;17.282;2022-10-24T08:54:12;102064.59;;;23.27
45565;BMP280;31280;40.408;17.282;2022-10-24T08:56:39;102064.59;;;23.27
45565;BMP280;31280;40.408;17.282;2022-10-24T08:59:09;102055.31;;;23.25
45565;BMP280;31280;40.408;17.282;2022-10-24T09:01:47;102046.16;;;23.19
45565;BMP280;31280;40.408;17.282;2022-10-24T09:04:18;102067.25;;;23.36
45565;BMP280;31280;40.408;17.282;2022-10-24T09:06:45;102064.22;;;23.34
45565;BMP280;31280;40.408;17.282;2022-10-24T09:09:23;102049.88;;;23.30
45565;BMP280;31280;40.408;17.282;2022-10-24T09:12:13;102065.75;;;23.35
45565;BMP280;31280;40.408;17.282;2022-10-24T09:14:41;102061.19;;;23.32
45565;BMP280;31280;40.408;17.282;2022-10-24T09:19:40;102040.88;;;23.30
45565;BMP280;31280;40.408;17.282;2022-10-24T09:22:11;102057.63;;;23.41
45565;BMP280;31280;40.408;17.282;2022-10-24T09:24:50;102052.59;;;23.39
45565;BMP280;31280;40.408;17.282;2022-10-24T09:27:28;102053.63;;;23.42
45565;BMP280;31280;40.408;17.282;2022-10-24T09:29:58;102050.69;;;23.45
45565;BMP280;31280;40.408;17.282;2022-10-24T09:32:29;102053.44;;;23.45
45565;BMP280;31280;40.408;17.282;2022-10-24T09:35:03;102050.03;;;23.50
45565;BMP280;31280;40.408;17.282;2022-10-24T09:37:42;102036.19;;;23.45
45565;BMP280;31280;40.408;17.282;2022-10-24T09:40:24;102031.44;;;23.45
45565;BMP280;31280;40.408;17.282;2022-10-24T09:42:57;102045.69;;;23.58
45565;BMP280;31280;40.408;17.282;2022-10-24T09:45:42;102043.41;;;23.56
45565;BMP280;31280;40.408;17.282;2022-10-24T09:50:42;102045.28;;;23.65
45565;BMP280;31280;40.408;17.282;2022-10-24T09:55:57;102030.59;;;23.68
45565;BMP280;31280;40.408;17.282;2022-10-24T09:58:32;102045.78;;;23.77
45565;BMP280;31280;40.408;17.282;2022-10-24T10:01:00;102034.88;;;23.83
45565;BMP280;31280;40.408;17.282;2022-10-24T10:03:27;102032.00;;;23.77
45565;BMP280;31280;40.408;17.282;2022-10-24T10:06:17;102037.16;;;23.84
45565;BMP280;31280;40.408;17.282;2022-10-24T10:08:53;102023.13;;;23.82
45565;BMP280;31280;40.408;17.282;2022-10-24T10:11:27;102032.22;;;23.88
45565;BMP280;31280;40.408;17.282;2022-10-24T10:13:56;102017.59;;;23.82
45565;BMP280;31280;40.408;17.282;2022-10-24T10:16:32;102037.66;;;23.97
45565;BMP280;31280;40.408;17.282;2022-10-24T10:19:19;102018.38;;;23.97
45565;BMP280;31280;40.408;17.282;2022-10-24T10:24:26;102012.88;;;23.97
45565;BMP280;31280;40.408;17.282;2022-10-24T10:26:53;102014.44;;;23.89
45565;BMP280;31280;40.408;17.282;2022-10-24T10:29:20;102012.31;;;23.93
45565;BMP280;31280;40.408;17.282;2022-10-24T10:34:37;102009.41;;;24.02
45565;BMP280;31280;40.408;17.282;2022-10-24T10:42:50;102004.75;;;24.08
45565;BMP280;31280;40.408;17.282;2022-10-24T10:45:46;101997.91;;;24.18
45565;BMP280;31280;40.408;17.282;2022-10-24T10:48:40;101990.75;;;24.26
45565;BMP280;31280;40.408;17.282;2022-10-24T10:51:34;101989.03;;;24.28
45565;BMP280;31280;40.408;17.282;2022-10-24T10:54:17;101981.25;;;24.27
45565;BMP280;31280;40.408;17.282;2022-10-24T10:57:18;101984.38;;;24.34
45565;BMP280;31280;40.408;17.282;2022-10-24T11:00:05;101974.56;;;24.33
45565;BMP280;31280;40.408;17.282;2022-10-24T11:10:47;101970.31;;;24.52
45565;BMP280;31280;40.408;17.282;2022-10-24T11:13:24;101970.41;;;24.57
45565;BMP280;31280;40.408;17.282;2022-10-24T11:15:53;101967.25;;;24.64
45565;BMP280;31280;40.408;17.282;2022-10-24T11:18:41;101948.97;;;24.66
45565;BMP280;31280;40.408;17.282;2022-10-24T11:21:10;101943.06;;;24.73
45565;BMP280;31280;40.408;17.282;2022-10-24T11:26:16;101939.50;;;24.73
45565;BMP280;31280;40.408;17.282;2022-10-24T11:28:55;101939.31;;;24.96
45565;BMP280;31280;40.408;17.282;2022-10-24T11:31:25;101917.22;;;24.96
45565;BMP280;31280;40.408;17.282;2022-10-24T11:34:09;101934.94;;;25.09
45565;BMP280;31280;40.408;17.282;2022-10-24T11:55:46;101890.78;;;25.39
45565;BMP280;31280;40.408;17.282;2022-10-24T11:58:17;101888.81;;;25.45
45565;BMP280;31280;40.408;17.282;2022-10-24T12:08:58;101874.97;;;25.70
45565;BMP280;31280;40.408;17.282;2022-10-24T12:11:34;101864.97;;;25.83
45565;BMP280;31280;40.408;17.282;2022-10-24T12:14:30;101862.22;;;25.83
45565;BMP280;31280;40.408;17.282;2022-10-24T12:19:30;101868.13;;;26.07
45565;BMP280;31280;40.408;17.282;2022-10-24T12:21:59;101865.25;;;25.85
45565;BMP280;31280;40.408;17.282;2022-10-24T12:24:28;101856.91;;;25.80
45565;BMP280;31280;40.408;17.282;2022-10-24T12:26:58;101856.50;;;25.98
45565;BMP280;31280;40.408;17.282;2022-10-24T12:29:30;101851.81;;;26.14
45565;BMP280;31280;40.408;17.282;2022-10-24T12:32:21;101860.19;;;26.31
45565;BMP280;31280;40.408;17.282;2022-10-24T12:34:57;101861.25;;;26.44
45565;BMP280;31280;40.408;17.282;2022-10-24T12:39:53;101866.53;;;26.58
45565;BMP280;31280;40.408;17.282;2022-10-24T12:44:48;101858.75;;;26.73
45565;BMP280;31280;40.408;17.282;2022-10-24T12:49:52;101849.72;;;26.88
45565;BMP280;31280;40.408;17.282;2022-10-24T12:52:49;101853.03;;;27.14
45565;BMP280;31280;40.408;17.282;2022-10-24T13:00:59;101836.75;;;27.77
45565;BMP280;31280;40.408;17.282;2022-10-24T13:03:54;101827.06;;;28.00
45565;BMP280;31280;40.408;17.282;2022-10-24T13:12:27;101835.13;;;28.48
45565;BMP280;31280;40.408;17.282;2022-10-24T13:20:25;101827.16;;;28.97
45565;BMP280;31280;40.408;17.282;2022-10-24T13:23:02;101827.03;;;28.84
45565;BMP280;31280;40.408;17.282;2022-10-24T13:25:39;101819.84;;;28.94
45565;BMP280;31280;40.408;17.282;2022-10-24T13:41:40;101817.13;;;28.60
45565;BMP280;31280;40.408;17.282;2022-10-24T13:44:13;101803.81;;;28.19
45565;BMP280;31280;40.408;17.282;2022-10-24T13:52:46;101810.19;;;28.43
45565;BMP280;31280;40.408;17.282;2022-10-24T13:55:22;101804.72;;;28.32
45565;BMP280;31280;40.408;17.282;2022-10-24T13:57:53;101799.44;;;28.28
45565;BMP280;31280;40.408;17.282;2022-10-24T14:00:27;101800.88;;;28.40
45565;BMP280;31280;40.408;17.282;2022-10-24T14:02:54;101803.91;;;28.42
45565;BMP280;31280;40.408;17.282;2022-10-24T14:05:39;101793.63;;;28.32
45565;BMP280;31280;40.408;17.282;2022-10-24T14:10:58;101795.41;;;28.29
45565;BMP280;31280;40.408;17.282;2022-10-24T14:13:28;101794.81;;;27.97
45565;BMP280;31280;40.408;17.282;2022-10-24T14:15:57;101797.22;;;27.77
45565;BMP280;31280;40.408;17.282;2022-10-24T14:18:25;101789.84;;;27.95
45565;BMP280;31280;40.408;17.282;2022-10-24T14:20:53;101787.13;;;27.74
45565;BMP280;31280;40.408;17.282;2022-10-24T14:23:27;101791.50;;;27.53
45565;BMP280;31280;40.408;17.282;2022-10-24T14:26:17;101792.13;;;27.19
45565;BMP280;31280;40.408;17.282;2022-10-24T14:29:04;101795.13;;;26.73
45565;BMP280;31280;40.408;17.282;2022-10-24T14:31:31;101790.84;;;26.45
45565;BMP280;31280;40.408;17.282;2022-10-24T14:34:00;101769.19;;;26.22
45565;BMP280;31280;40.408;17.282;2022-10-24T14:36:30;101794.28;;;26.13
45565;BMP280;31280;40.408;17.282;2022-10-24T14:38:57;101792.91;;;25.81
45565;BMP280;31280;40.408;17.282;2022-10-24T14:41:27;101794.50;;;25.52
45565;BMP280;31280;40.408;17.282;2022-10-24T14:43:55;101786.97;;;25.47
45565;BMP280;31280;40.408;17.282;2022-10-24T14:48:52;101777.69;;;25.09
45565;BMP280;31280;40.408;17.282;2022-10-24T14:51:32;101797.16;;;25.00
45565;BMP280;31280;40.408;17.282;2022-10-24T14:54:12;101790.78;;;24.89
45565;BMP280;31280;40.408;17.282;2022-10-24T14:56:40;101803.44;;;24.76
45565;BMP280;31280;40.408;17.282;2022-10-24T14:59:17;101793.50;;;24.58
45565;BMP280;31280;40.408;17.282;2022-10-24T15:02:00;101797.31;;;24.41
45565;BMP280;31280;40.408;17.282;2022-10-24T15:04:29;101800.94;;;24.28
45565;BMP280;31280;40.408;17.282;2022-10-24T15:06:55;101802.75;;;24.11
45565;BMP280;31280;40.408;17.282;2022-10-24T15:09:21;101801.22;;;23.90
45565;BMP280;31280;40.408;17.282;2022-10-24T15:11:59;101808.16;;;23.86
45565;BMP280;31280;40.408;17.282;2022-10-24T15:19:46;101802.94;;;23.54
45565;BMP280;31280;40.408;17.282;2022-10-24T15:24:54;101805.88;;;23.36
45565;BMP280;31280;40.408;17.282;2022-10-24T15:27:28;101802.03;;;23.28
45565;BMP280;31280;40.408;17.282;2022-10-24T15:29:54;101794.09;;;23.16
45565;BMP280;31280;40.408;17.282;2022-10-24T15:32:21;101798.56;;;23.14
45565;BMP280;31280;40.408;17.282;2022-10-24T15:34:47;101800.75;;;23.10
45565;BMP280;31280;40.408;17.282;2022-10-24T15:37:21;101803.59;;;23.01
45565;BMP280;31280;40.408;17.282;2022-10-24T15:39:48;101781.09;;;22.88
45565;BMP280;31280;40.408;17.282;2022-10-24T15:42:14;101798.81;;;22.87
45565;BMP280;31280;40.408;17.282;2022-10-24T15:44:40;101781.00;;;22.69
45565;BMP280;31280;40.408;17.282;2022-10-24T15:47:06;101791.31;;;22.73
45565;BMP280;31280;40.408;17.282;2022-10-24T15:49:34;101779.66;;;22.64
45565;BMP280;31280;40.408;17.282;2022-10-24T15:52:05;101787.16;;;22.64
45565;BMP280;31280;40.408;17.282;2022-10-24T15:54:30;101785.53;;;22.57
45565;BMP280;31280;40.408;17.282;2022-10-24T15:56:56;101793.66;;;22.52
45565;BMP280;31280;40.408;17.282;2022-10-24T15:59:22;101806.25;;;22.44
45565;BMP280;31280;40.408;17.282;2022-10-24T16:01:58;101800.19;;;22.40
45565;BMP280;31280;40.408;17.282;2022-10-24T16:07:40;101793.88;;;22.25
45565;BMP280;31280;40.408;17.282;2022-10-24T16:10:06;101806.06;;;22.24
45565;BMP280;31280;40.408;17.282;2022-10-24T16:12:32;101807.03;;;22.21
45565;BMP280;31280;40.408;17.282;2022-10-24T16:14:58;101796.97;;;22.19
45565;BMP280;31280;40.408;17.282;2022-10-24T16:17:23;101789.16;;;22.03
45565;BMP280;31280;40.408;17.282;2022-10-24T16:19:49;101800.38;;;22.14
45565;BMP280;31280;40.408;17.282;2022-10-24T16:22:15;101786.84;;;22.01
45565;BMP280;31280;40.408;17.282;2022-10-24T16:24:41;101778.72;;;21.93
45565;BMP280;31280;40.408;17.282;2022-10-24T16:27:07;101791.47;;;21.95
45565;BMP280;31280;40.408;17.282;2022-10-24T16:29:33;101796.34;;;22.00
45565;BMP280;31280;40.408;17.282;2022-10-24T16:31:59;101792.84;;;22.00
45565;BMP280;31280;40.408;17.282;2022-10-24T16:34:24;101795.78;;;21.96